sensor_id;sensor_type;location;lat;lon;timestamp;P1;durP1;ratioP1;P2;durP2;ratioP2
5612;SDS011;63463;53.586;9.928;2022-09-20T00:01:56;6.07;;;4.40;;
5612;SDS011;63463;53.586;9.928;2022-09-20T00:04:22;10.17;;;4.60;;
5612;SDS011;63463;53.586;9.928;2022-09-20T00:06:48;12.33;;;5.37;;
5612;SDS011;63463;53.586;9.928;2022-09-20T00:09:14;10.17;;;5.23;;
5612;SDS011;63463;53.586;9.928;2022-09-20T00:11:40;7.90;;;4.87;;
5612;SDS011;63463;53.586;9.928;2022-09-20T00:20:16;16.20;;;4.90;;
5612;SDS011;63463;53.586;9.928;2022-09-20T00:22:42;7.93;;;5.50;;
5612;SDS011;63463;53.586;9.928;2022-09-20T00:25:08;13.23;;;4.87;;
5612;SDS011;63463;53.586;9.928;2022-09-20T00:27:34;10.87;;;4.77;;
5612;SDS011;63463;53.586;9.928;2022-09-20T00:30:00;10.70;;;4.90;;
5612;SDS011;63463;53.586;9.928;2022-09-20T00:32:26;5.63;;;4.57;;
5612;SDS011;63463;53.586;9.928;2022-09-20T00:34:52;18.90;;;5.00;;
5612;SDS011;63463;53.586;9.928;2022-09-20T00:43:37;13.53;;;5.27;;
5612;SDS011;63463;53.586;9.928;2022-09-20T00:46:03;14.07;;;4.90;;
5612;SDS011;63463;53.586;9.928;2022-09-20T00:48:30;11.00;;;4.97;;
5612;SDS011;63463;53.586;9.928;2022-09-20T00:51:06;10.23;;;4.70;;
5612;SDS011;63463;53.586;9.928;2022-09-20T00:53:35;11.60;;;4.60;;
5612;SDS011;63463;53.586;9.928;2022-09-20T00:56:09;8.40;;;5.00;;
5612;SDS011;63463;53.586;9.928;2022-09-20T00:58:38;13.97;;;4.30;;
5612;SDS011;63463;53.586;9.928;2022-09-20T01:01:05;9.80;;;4.50;;
5612;SDS011;63463;53.586;9.928;2022-09-20T01:03:33;7.50;;;4.80;;
5612;SDS011;63463;53.586;9.928;2022-09-20T01:06:00;12.97;;;4.97;;
5612;SDS011;63463;53.586;9.928;2022-09-20T01:08:27;10.40;;;4.70;;
5612;SDS011;63463;53.586;9.928;2022-09-20T01:10:53;12.53;;;4.93;;
5612;SDS011;63463;53.586;9.928;2022-09-20T01:22:21;6.20;;;4.87;;
5612;SDS011;63463;53.586;9.928;2022-09-20T01:27:40;7.77;;;5.70;;
5612;SDS011;63463;53.586;9.928;2022-09-20T01:30:13;26.10;;;4.67;;
5612;SDS011;63463;53.586;9.928;2022-09-20T01:32:48;9.80;;;5.53;;
5612;SDS011;63463;53.586;9.928;2022-09-20T01:35:16;14.20;;;5.20;;
5612;SDS011;63463;53.586;9.928;2022-09-20T01:42:51;10.93;;;4.80;;
5612;SDS011;63463;53.586;9.928;2022-09-20T01:53:16;12.87;;;5.70;;
5612;SDS011;63463;53.586;9.928;2022-09-20T02:06:32;5.60;;;4.63;;
5612;SDS011;63463;53.586;9.928;2022-09-20T02:11:44;19.97;;;5.67;;
5612;SDS011;63463;53.586;9.928;2022-09-20T02:14:29;10.97;;;5.70;;
5612;SDS011;63463;53.586;9.928;2022-09-20T02:17:00;11.73;;;5.47;;
5612;SDS011;63463;53.586;9.928;2022-09-20T02:19:40;12.47;;;5.40;;
5612;SDS011;63463;53.586;9.928;2022-09-20T02:24:47;8.33;;;5.30;;
5612;SDS011;63463;53.586;9.928;2022-09-20T02:29:59;13.83;;;5.70;;
5612;SDS011;63463;53.586;9.928;2022-09-20T02:46:07;11.27;;;5.10;;
5612;SDS011;63463;53.586;9.928;2022-09-20T02:48:44;10.03;;;5.43;;
5612;SDS011;63463;53.586;9.928;2022-09-20T02:51:19;11.20;;;5.00;;
5612;SDS011;63463;53.586;9.928;2022-09-20T02:54:50;5.43;;;4.93;;
5612;SDS011;63463;53.586;9.928;2022-09-20T02:56:49;12.53;;;5.63;;
5612;SDS011;63463;53.586;9.928;2022-09-20T02:59:24;8.50;;;5.60;;
5612;SDS011;63463;53.586;9.928;2022-09-20T03:02:00;6.97;;;5.17;;
5612;SDS011;63463;53.586;9.928;2022-09-20T03:04:37;4.90;;;4.47;;
5612;SDS011;63463;53.586;9.928;2022-09-20T03:12:41;7.60;;;5.10;;
5612;SDS011;63463;53.586;9.928;2022-09-20T03:21:28;8.07;;;5.57;;
5612;SDS011;63463;53.586;9.928;2022-09-20T03:26:45;8.70;;;5.33;;
5612;SDS011;63463;53.586;9.928;2022-09-20T03:44:39;7.30;;;5.73;;
5612;SDS011;63463;53.586;9.928;2022-09-20T03:55:36;4.90;;;4.50;;
5612;SDS011;63463;53.586;9.928;2022-09-20T04:03:16;5.10;;;4.70;;
5612;SDS011;63463;53.586;9.928;2022-09-20T04:08:24;10.97;;;4.90;;
5612;SDS011;63463;53.586;9.928;2022-09-20T04:10:56;5.50;;;5.10;;
5612;SDS011;63463;53.586;9.928;2022-09-20T04:22:23;8.73;;;5.27;;
5612;SDS011;63463;53.586;9.928;2022-09-20T04:30:35;5.20;;;4.80;;
5612;SDS011;63463;53.586;9.928;2022-09-20T04:33:12;14.60;;;5.37;;
5612;SDS011;63463;53.586;9.928;2022-09-20T04:38:30;7.37;;;5.27;;
5612;SDS011;63463;53.586;9.928;2022-09-20T04:49:08;4.93;;;4.63;;
5612;SDS011;63463;53.586;9.928;2022-09-20T04:51:44;5.60;;;5.10;;
5612;SDS011;63463;53.586;9.928;2022-09-20T05:10:25;5.77;;;5.27;;
5612;SDS011;63463;53.586;9.928;2022-09-20T05:22:21;7.30;;;5.37;;
5612;SDS011;63463;53.586;9.928;2022-09-20T05:25:10;8.23;;;5.27;;
5612;SDS011;63463;53.586;9.928;2022-09-20T05:30:44;7.03;;;5.50;;
5612;SDS011;63463;53.586;9.928;2022-09-20T05:38:33;8.47;;;5.23;;
5612;SDS011;63463;53.586;9.928;2022-09-20T05:41:07;6.00;;;5.40;;
5612;SDS011;63463;53.586;9.928;2022-09-20T05:46:53;7.00;;;5.40;;
5612;SDS011;63463;53.586;9.928;2022-09-20T06:22:40;5.03;;;4.70;;
5612;SDS011;63463;53.586;9.928;2022-09-20T06:27:37;5.43;;;4.43;;
5612;SDS011;63463;53.586;9.928;2022-09-20T06:30:05;5.30;;;4.90;;
5612;SDS011;63463;53.586;9.928;2022-09-20T06:32:32;5.97;;;4.47;;
5612;SDS011;63463;53.586;9.928;2022-09-20T06:34:58;8.03;;;4.80;;
5612;SDS011;63463;53.586;9.928;2022-09-20T06:37:41;4.70;;;4.30;;
5612;SDS011;63463;53.586;9.928;2022-09-20T06:43:12;7.27;;;4.57;;
5612;SDS011;63463;53.586;9.928;2022-09-20T06:45:39;9.23;;;5.07;;
5612;SDS011;63463;53.586;9.928;2022-09-20T06:48:05;12.47;;;5.10;;
5612;SDS011;63463;53.586;9.928;2022-09-20T06:50:33;11.50;;;5.13;;
5612;SDS011;63463;53.586;9.928;2022-09-20T06:53:00;11.97;;;5.23;;
5612;SDS011;63463;53.586;9.928;2022-09-20T06:55:28;18.90;;;5.57;;
5612;SDS011;63463;53.586;9.928;2022-09-20T06:57:55;14.43;;;5.60;;
5612;SDS011;63463;53.586;9.928;2022-09-20T07:00:21;10.53;;;5.30;;
5612;SDS011;63463;53.586;9.928;2022-09-20T07:02:47;9.00;;;5.10;;
5612;SDS011;63463;53.586;9.928;2022-09-20T07:05:14;15.93;;;5.33;;
5612;SDS011;63463;53.586;9.928;2022-09-20T07:07:40;12.17;;;4.40;;
5612;SDS011;63463;53.586;9.928;2022-09-20T07:10:07;5.20;;;4.30;;
5612;SDS011;63463;53.586;9.928;2022-09-20T07:12:34;6.57;;;4.70;;
5612;SDS011;63463;53.586;9.928;2022-09-20T07:21:11;14.03;;;4.23;;
5612;SDS011;63463;53.586;9.928;2022-09-20T07:23:37;14.77;;;4.40;;
5612;SDS011;63463;53.586;9.928;2022-09-20T07:26:03;5.60;;;3.40;;
5612;SDS011;63463;53.586;9.928;2022-09-20T07:28:30;25.23;;;4.43;;
5612;SDS011;63463;53.586;9.928;2022-09-20T07:30:56;8.73;;;4.50;;
5612;SDS011;63463;53.586;9.928;2022-09-20T07:33:23;15.03;;;4.20;;
5612;SDS011;63463;53.586;9.928;2022-09-20T07:35:52;11.57;;;4.07;;
5612;SDS011;63463;53.586;9.928;2022-09-20T07:38:19;7.47;;;4.00;;
5612;SDS011;63463;53.586;9.928;2022-09-20T07:40:52;18.03;;;4.90;;
5612;SDS011;63463;53.586;9.928;2022-09-20T07:43:18;11.83;;;4.23;;
5612;SDS011;63463;53.586;9.928;2022-09-20T07:45:44;5.03;;;3.80;;
5612;SDS011;63463;53.586;9.928;2022-09-20T07:48:15;16.57;;;4.40;;
5612;SDS011;63463;53.586;9.928;2022-09-20T07:50:40;8.37;;;3.63;;
5612;SDS011;63463;53.586;9.928;2022-09-20T07:53:14;6.40;;;3.60;;
5612;SDS011;63463;53.586;9.928;2022-09-20T07:55:40;5.20;;;3.97;;
5612;SDS011;63463;53.586;9.928;2022-09-20T07:58:06;11.50;;;3.73;;
5612;SDS011;63463;53.586;9.928;2022-09-20T08:00:32;8.13;;;3.87;;
5612;SDS011;63463;53.586;9.928;2022-09-20T08:02:58;13.93;;;3.87;;
5612;SDS011;63463;53.586;9.928;2022-09-20T08:05:25;14.13;;;3.40;;
5612;SDS011;63463;53.586;9.928;2022-09-20T08:07:51;14.17;;;3.83;;
5612;SDS011;63463;53.586;9.928;2022-09-20T08:10:17;7.43;;;3.67;;
5612;SDS011;63463;53.586;9.928;2022-09-20T08:12:43;8.73;;;3.50;;
5612;SDS011;63463;53.586;9.928;2022-09-20T08:21:19;11.33;;;3.40;;
5612;SDS011;63463;53.586;9.928;2022-09-20T08:23:45;10.67;;;3.50;;
5612;SDS011;63463;53.586;9.928;2022-09-20T08:26:13;6.67;;;3.50;;
5612;SDS011;63463;53.586;9.928;2022-09-20T08:28:40;8.63;;;3.30;;
5612;SDS011;63463;53.586;9.928;2022-09-20T08:31:07;8.20;;;3.33;;
5612;SDS011;63463;53.586;9.928;2022-09-20T08:33:33;8.43;;;2.90;;
5612;SDS011;63463;53.586;9.928;2022-09-20T08:36:06;21.80;;;4.17;;
5612;SDS011;63463;53.586;9.928;2022-09-20T08:38:33;16.73;;;3.70;;
5612;SDS011;63463;53.586;9.928;2022-09-20T08:41:33;7.70;;;3.13;;
5612;SDS011;63463;53.586;9.928;2022-09-20T08:43:57;4.90;;;2.97;;
5612;SDS011;63463;53.586;9.928;2022-09-20T08:46:34;15.63;;;2.93;;
5612;SDS011;63463;53.586;9.928;2022-09-20T08:49:02;5.83;;;3.30;;
5612;SDS011;63463;53.586;9.928;2022-09-20T08:51:32;9.27;;;3.00;;
5612;SDS011;63463;53.586;9.928;2022-09-20T08:53:59;11.13;;;2.77;;
5612;SDS011;63463;53.586;9.928;2022-09-20T08:56:28;7.47;;;2.90;;
5612;SDS011;63463;53.586;9.928;2022-09-20T08:58:54;17.97;;;2.90;;
5612;SDS011;63463;53.586;9.928;2022-09-20T09:01:24;5.63;;;2.67;;
5612;SDS011;63463;53.586;9.928;2022-09-20T09:03:52;11.93;;;2.87;;
5612;SDS011;63463;53.586;9.928;2022-09-20T09:06:22;10.47;;;3.40;;
5612;SDS011;63463;53.586;9.928;2022-09-20T09:08:48;4.73;;;2.93;;
5612;SDS011;63463;53.586;9.928;2022-09-20T09:11:17;6.30;;;2.40;;
5612;SDS011;63463;53.586;9.928;2022-09-20T09:19:55;10.10;;;2.70;;
5612;SDS011;63463;53.586;9.928;2022-09-20T09:27:33;9.03;;;2.40;;
5612;SDS011;63463;53.586;9.928;2022-09-20T09:30:00;6.97;;;3.07;;
5612;SDS011;63463;53.586;9.928;2022-09-20T09:32:30;14.30;;;2.93;;
5612;SDS011;63463;53.586;9.928;2022-09-20T09:37:54;3.53;;;2.47;;
5612;SDS011;63463;53.586;9.928;2022-09-20T09:40:21;5.23;;;2.70;;
5612;SDS011;63463;53.586;9.928;2022-09-20T09:42:48;3.87;;;2.50;;
5612;SDS011;63463;53.586;9.928;2022-09-20T09:45:34;7.33;;;2.30;;
5612;SDS011;63463;53.586;9.928;2022-09-20T09:48:15;11.10;;;2.77;;
5612;SDS011;63463;53.586;9.928;2022-09-20T09:50:42;7.13;;;2.40;;
5612;SDS011;63463;53.586;9.928;2022-09-20T09:53:09;8.03;;;3.00;;
5612;SDS011;63463;53.586;9.928;2022-09-20T09:55:39;7.70;;;2.30;;
5612;SDS011;63463;53.586;9.928;2022-09-20T09:58:15;5.83;;;2.73;;
5612;SDS011;63463;53.586;9.928;2022-09-20T10:00:46;13.33;;;2.83;;
5612;SDS011;63463;53.586;9.928;2022-09-20T10:08:27;10.20;;;2.93;;
5612;SDS011;63463;53.586;9.928;2022-09-20T10:27:41;9.33;;;2.63;;
5612;SDS011;63463;53.586;9.928;2022-09-20T10:30:22;8.40;;;2.57;;
5612;SDS011;63463;53.586;9.928;2022-09-20T10:32:53;5.40;;;2.20;;
5612;SDS011;63463;53.586;9.928;2022-09-20T10:40:35;8.93;;;2.20;;
5612;SDS011;63463;53.586;9.928;2022-09-20T10:49:03;7.17;;;2.50;;
5612;SDS011;63463;53.586;9.928;2022-09-20T10:51:40;7.63;;;2.07;;
5612;SDS011;63463;53.586;9.928;2022-09-20T10:56:46;2.30;;;2.10;;
5612;SDS011;63463;53.586;9.928;2022-09-20T11:04:16;1.87;;;1.77;;
5612;SDS011;63463;53.586;9.928;2022-09-20T11:06:49;2.93;;;1.60;;
5612;SDS011;63463;53.586;9.928;2022-09-20T11:09:18;4.60;;;1.90;;
5612;SDS011;63463;53.586;9.928;2022-09-20T11:11:45;14.90;;;2.30;;
5612;SDS011;63463;53.586;9.928;2022-09-20T11:14:12;3.63;;;2.10;;
5612;SDS011;63463;53.586;9.928;2022-09-20T11:16:41;9.17;;;3.00;;
5612;SDS011;63463;53.586;9.928;2022-09-20T11:21:38;3.10;;;2.00;;
5612;SDS011;63463;53.586;9.928;2022-09-20T11:24:13;4.67;;;1.90;;
5612;SDS011;63463;53.586;9.928;2022-09-20T11:26:44;6.07;;;2.07;;
5612;SDS011;63463;53.586;9.928;2022-09-20T11:29:20;4.23;;;2.07;;
5612;SDS011;63463;53.586;9.928;2022-09-20T11:31:47;4.20;;;2.27;;
5612;SDS011;63463;53.586;9.928;2022-09-20T11:34:20;13.67;;;2.17;;
5612;SDS011;63463;53.586;9.928;2022-09-20T11:36:52;3.90;;;2.00;;
5612;SDS011;63463;53.586;9.928;2022-09-20T11:39:22;4.87;;;1.90;;
5612;SDS011;63463;53.586;9.928;2022-09-20T11:41:53;6.60;;;1.67;;
5612;SDS011;63463;53.586;9.928;2022-09-20T11:44:20;5.60;;;2.13;;
5612;SDS011;63463;53.586;9.928;2022-09-20T11:49:29;6.60;;;1.70;;
5612;SDS011;63463;53.586;9.928;2022-09-20T11:54:50;3.40;;;1.50;;
5612;SDS011;63463;53.586;9.928;2022-09-20T11:57:20;3.37;;;1.60;;
5612;SDS011;63463;53.586;9.928;2022-09-20T11:59:54;3.57;;;1.67;;
5612;SDS011;63463;53.586;9.928;2022-09-20T12:02:32;5.27;;;2.20;;
5612;SDS011;63463;53.586;9.928;2022-09-20T12:04:59;6.00;;;2.00;;
5612;SDS011;63463;53.586;9.928;2022-09-20T12:10:03;5.47;;;1.83;;
5612;SDS011;63463;53.586;9.928;2022-09-20T12:12:45;7.80;;;2.30;;
5612;SDS011;63463;53.586;9.928;2022-09-20T12:21:21;3.17;;;1.77;;
5612;SDS011;63463;53.586;9.928;2022-09-20T12:28:52;9.17;;;2.27;;
5612;SDS011;63463;53.586;9.928;2022-09-20T12:36:38;6.53;;;1.70;;
5612;SDS011;63463;53.586;9.928;2022-09-20T12:41:49;4.50;;;1.87;;
5612;SDS011;63463;53.586;9.928;2022-09-20T12:46:55;6.43;;;2.10;;
5612;SDS011;63463;53.586;9.928;2022-09-20T12:49:25;2.80;;;1.80;;
5612;SDS011;63463;53.586;9.928;2022-09-20T12:57:57;4.00;;;2.33;;
5612;SDS011;63463;53.586;9.928;2022-09-20T13:00:37;3.00;;;1.90;;
5612;SDS011;63463;53.586;9.928;2022-09-20T13:03:24;2.60;;;1.83;;
5612;SDS011;63463;53.586;9.928;2022-09-20T13:08:42;7.90;;;2.17;;
5612;SDS011;63463;53.586;9.928;2022-09-20T13:11:17;11.43;;;2.53;;
5612;SDS011;63463;53.586;9.928;2022-09-20T13:22:34;5.50;;;1.90;;
5612;SDS011;63463;53.586;9.928;2022-09-20T13:25:06;6.00;;;1.97;;
5612;SDS011;63463;53.586;9.928;2022-09-20T13:27:33;5.43;;;2.10;;
5612;SDS011;63463;53.586;9.928;2022-09-20T13:32:38;6.17;;;2.03;;
5612;SDS011;63463;53.586;9.928;2022-09-20T13:37:36;5.13;;;1.83;;
5612;SDS011;63463;53.586;9.928;2022-09-20T13:40:03;5.37;;;2.00;;
5612;SDS011;63463;53.586;9.928;2022-09-20T13:42:30;4.00;;;1.90;;
5612;SDS011;63463;53.586;9.928;2022-09-20T13:44:59;4.00;;;1.97;;
5612;SDS011;63463;53.586;9.928;2022-09-20T13:47:28;5.00;;;1.83;;
5612;SDS011;63463;53.586;9.928;2022-09-20T13:50:08;7.50;;;2.63;;
5612;SDS011;63463;53.586;9.928;2022-09-20T13:52:42;5.70;;;2.17;;
5612;SDS011;63463;53.586;9.928;2022-09-20T13:55:24;5.33;;;2.03;;
5612;SDS011;63463;53.586;9.928;2022-09-20T13:57:52;2.83;;;1.80;;
5612;SDS011;63463;53.586;9.928;2022-09-20T14:00:18;8.43;;;1.77;;
5612;SDS011;63463;53.586;9.928;2022-09-20T14:02:44;3.33;;;1.70;;
5612;SDS011;63463;53.586;9.928;2022-09-20T14:05:16;7.20;;;2.20;;
5612;SDS011;63463;53.586;9.928;2022-09-20T14:07:43;2.37;;;1.70;;
5612;SDS011;63463;53.586;9.928;2022-09-20T14:10:30;2.10;;;2.00;;
5612;SDS011;63463;53.586;9.928;2022-09-20T14:12:57;9.53;;;2.20;;
5612;SDS011;63463;53.586;9.928;2022-09-20T14:24:39;3.20;;;1.33;;
5612;SDS011;63463;53.586;9.928;2022-09-20T14:27:16;7.03;;;1.70;;
5612;SDS011;63463;53.586;9.928;2022-09-20T14:29:43;3.20;;;1.80;;
5612;SDS011;63463;53.586;9.928;2022-09-20T14:34:42;4.73;;;1.90;;
5612;SDS011;63463;53.586;9.928;2022-09-20T14:37:17;1.97;;;1.73;;
5612;SDS011;63463;53.586;9.928;2022-09-20T14:39:47;4.83;;;2.23;;
5612;SDS011;63463;53.586;9.928;2022-09-20T14:42:17;9.80;;;2.00;;
5612;SDS011;63463;53.586;9.928;2022-09-20T14:44:44;2.23;;;1.97;;
5612;SDS011;63463;53.586;9.928;2022-09-20T14:47:14;3.20;;;2.10;;
5612;SDS011;63463;53.586;9.928;2022-09-20T14:49:41;1.60;;;1.50;;
5612;SDS011;63463;53.586;9.928;2022-09-20T14:54:57;2.87;;;2.53;;
5612;SDS011;63463;53.586;9.928;2022-09-20T14:57:23;7.60;;;2.43;;
5612;SDS011;63463;53.586;9.928;2022-09-20T14:59:49;4.30;;;2.20;;
5612;SDS011;63463;53.586;9.928;2022-09-20T15:02:19;11.77;;;2.27;;
5612;SDS011;63463;53.586;9.928;2022-09-20T15:04:52;8.10;;;2.60;;
5612;SDS011;63463;53.586;9.928;2022-09-20T15:07:19;2.23;;;2.13;;
5612;SDS011;63463;53.586;9.928;2022-09-20T15:09:45;7.60;;;2.60;;
5612;SDS011;63463;53.586;9.928;2022-09-20T15:12:12;2.27;;;2.17;;
5612;SDS011;63463;53.586;9.928;2022-09-20T15:14:39;7.97;;;2.47;;
5612;SDS011;63463;53.586;9.928;2022-09-20T15:17:06;2.30;;;2.10;;
5612;SDS011;63463;53.586;9.928;2022-09-20T15:19:34;8.60;;;2.77;;
5612;SDS011;63463;53.586;9.928;2022-09-20T15:22:00;6.33;;;2.57;;
5612;SDS011;63463;53.586;9.928;2022-09-20T15:24:26;5.17;;;1.97;;
5612;SDS011;63463;53.586;9.928;2022-09-20T15:26:52;7.30;;;2.23;;
5612;SDS011;63463;53.586;9.928;2022-09-20T15:29:18;2.40;;;1.90;;
5612;SDS011;63463;53.586;9.928;2022-09-20T15:31:45;4.50;;;2.00;;
5612;SDS011;63463;53.586;9.928;2022-09-20T15:34:12;2.40;;;1.80;;
5612;SDS011;63463;53.586;9.928;2022-09-20T15:36:39;1.90;;;1.80;;
5612;SDS011;63463;53.586;9.928;2022-09-20T15:39:05;2.17;;;2.07;;
5612;SDS011;63463;53.586;9.928;2022-09-20T15:41:31;4.83;;;2.20;;
5612;SDS011;63463;53.586;9.928;2022-09-20T15:43:57;7.10;;;2.00;;
5612;SDS011;63463;53.586;9.928;2022-09-20T15:46:23;4.10;;;2.40;;
5612;SDS011;63463;53.586;9.928;2022-09-20T15:48:53;7.33;;;2.20;;
5612;SDS011;63463;53.586;9.928;2022-09-20T15:51:20;3.97;;;2.50;;
5612;SDS011;63463;53.586;9.928;2022-09-20T15:53:47;4.83;;;2.03;;
5612;SDS011;63463;53.586;9.928;2022-09-20T15:56:25;3.87;;;2.00;;
5612;SDS011;63463;53.586;9.928;2022-09-20T15:58:52;8.17;;;2.17;;
5612;SDS011;63463;53.586;9.928;2022-09-20T16:01:25;11.33;;;2.57;;
5612;SDS011;63463;53.586;9.928;2022-09-20T16:03:52;3.77;;;2.00;;
5612;SDS011;63463;53.586;9.928;2022-09-20T16:06:19;7.40;;;2.53;;
5612;SDS011;63463;53.586;9.928;2022-09-20T16:08:45;2.90;;;2.23;;
5612;SDS011;63463;53.586;9.928;2022-09-20T16:11:12;4.87;;;1.70;;
5612;SDS011;63463;53.586;9.928;2022-09-20T16:13:38;2.30;;;2.20;;
5612;SDS011;63463;53.586;9.928;2022-09-20T16:16:05;6.60;;;2.30;;
5612;SDS011;63463;53.586;9.928;2022-09-20T16:18:32;2.53;;;2.33;;
5612;SDS011;63463;53.586;9.928;2022-09-20T16:21:18;2.50;;;2.40;;
5612;SDS011;63463;53.586;9.928;2022-09-20T16:23:48;5.37;;;2.47;;
5612;SDS011;63463;53.586;9.928;2022-09-20T16:26:15;5.40;;;2.87;;
5612;SDS011;63463;53.586;9.928;2022-09-20T16:28:41;2.53;;;2.33;;
5612;SDS011;63463;53.586;9.928;2022-09-20T16:34:16;4.27;;;2.20;;
5612;SDS011;63463;53.586;9.928;2022-09-20T16:36:43;7.17;;;2.87;;
5612;SDS011;63463;53.586;9.928;2022-09-20T16:39:10;8.20;;;2.20;;
5612;SDS011;63463;53.586;9.928;2022-09-20T16:41:36;4.50;;;2.60;;
5612;SDS011;63463;53.586;9.928;2022-09-20T16:44:03;7.30;;;2.30;;
5612;SDS011;63463;53.586;9.928;2022-09-20T16:46:30;2.40;;;2.20;;
5612;SDS011;63463;53.586;9.928;2022-09-20T16:48:56;3.63;;;2.47;;
5612;SDS011;63463;53.586;9.928;2022-09-20T16:51:25;4.50;;;2.20;;
5612;SDS011;63463;53.586;9.928;2022-09-20T16:53:53;2.40;;;2.10;;
5612;SDS011;63463;53.586;9.928;2022-09-20T16:58:46;3.30;;;2.03;;
5612;SDS011;63463;53.586;9.928;2022-09-20T17:01:12;2.93;;;2.10;;
5612;SDS011;63463;53.586;9.928;2022-09-20T17:03:38;2.83;;;2.23;;
5612;SDS011;63463;53.586;9.928;2022-09-20T17:06:06;6.27;;;2.30;;
5612;SDS011;63463;53.586;9.928;2022-09-20T17:08:33;6.90;;;2.77;;
5612;SDS011;63463;53.586;9.928;2022-09-20T17:11:02;8.57;;;2.30;;
5612;SDS011;63463;53.586;9.928;2022-09-20T17:13:29;6.80;;;2.83;;
5612;SDS011;63463;53.586;9.928;2022-09-20T17:16:02;5.73;;;2.90;;
5612;SDS011;63463;53.586;9.928;2022-09-20T17:18:28;3.57;;;2.67;;
5612;SDS011;63463;53.586;9.928;2022-09-20T17:20:54;11.90;;;2.60;;
5612;SDS011;63463;53.586;9.928;2022-09-20T17:23:23;4.90;;;2.57;;
5612;SDS011;63463;53.586;9.928;2022-09-20T17:25:59;3.40;;;3.07;;
5612;SDS011;63463;53.586;9.928;2022-09-20T17:28:25;3.10;;;2.70;;
5612;SDS011;63463;53.586;9.928;2022-09-20T17:30:51;4.03;;;3.10;;
5612;SDS011;63463;53.586;9.928;2022-09-20T17:33:19;11.00;;;3.00;;
5612;SDS011;63463;53.586;9.928;2022-09-20T17:35:53;10.13;;;2.73;;
5612;SDS011;63463;53.586;9.928;2022-09-20T17:38:19;4.07;;;3.67;;
5612;SDS011;63463;53.586;9.928;2022-09-20T17:40:46;7.43;;;2.70;;
5612;SDS011;63463;53.586;9.928;2022-09-20T17:43:14;5.33;;;2.93;;
5612;SDS011;63463;53.586;9.928;2022-09-20T17:45:40;7.03;;;3.30;;
5612;SDS011;63463;53.586;9.928;2022-09-20T17:48:05;3.63;;;2.90;;
5612;SDS011;63463;53.586;9.928;2022-09-20T17:50:34;3.30;;;3.00;;
5612;SDS011;63463;53.586;9.928;2022-09-20T17:53:00;5.93;;;2.90;;
5612;SDS011;63463;53.586;9.928;2022-09-20T17:55:26;5.83;;;3.17;;
5612;SDS011;63463;53.586;9.928;2022-09-20T17:57:52;10.13;;;3.60;;
5612;SDS011;63463;53.586;9.928;2022-09-20T18:00:18;6.10;;;3.20;;
5612;SDS011;63463;53.586;9.928;2022-09-20T18:02:44;3.97;;;3.40;;
5612;SDS011;63463;53.586;9.928;2022-09-20T18:05:10;5.30;;;3.00;;
5612;SDS011;63463;53.586;9.928;2022-09-20T18:07:36;8.00;;;3.10;;
5612;SDS011;63463;53.586;9.928;2022-09-20T18:10:02;4.23;;;2.90;;
5612;SDS011;63463;53.586;9.928;2022-09-20T18:12:28;7.00;;;3.77;;
5612;SDS011;63463;53.586;9.928;2022-09-20T18:14:55;10.30;;;3.13;;
5612;SDS011;63463;53.586;9.928;2022-09-20T18:17:21;9.20;;;3.63;;
5612;SDS011;63463;53.586;9.928;2022-09-20T18:19:47;6.37;;;3.87;;
5612;SDS011;63463;53.586;9.928;2022-09-20T18:22:13;8.90;;;3.43;;
5612;SDS011;63463;53.586;9.928;2022-09-20T18:24:39;9.97;;;3.73;;
5612;SDS011;63463;53.586;9.928;2022-09-20T18:27:06;8.40;;;3.33;;
5612;SDS011;63463;53.586;9.928;2022-09-20T18:29:31;5.33;;;3.40;;
5612;SDS011;63463;53.586;9.928;2022-09-20T18:32:00;6.63;;;3.43;;
5612;SDS011;63463;53.586;9.928;2022-09-20T18:34:27;7.90;;;3.80;;
5612;SDS011;63463;53.586;9.928;2022-09-20T18:36:57;7.33;;;3.80;;
5612;SDS011;63463;53.586;9.928;2022-09-20T18:39:28;6.40;;;3.40;;
5612;SDS011;63463;53.586;9.928;2022-09-20T18:41:56;13.47;;;4.20;;
5612;SDS011;63463;53.586;9.928;2022-09-20T18:44:22;10.93;;;3.80;;
5612;SDS011;63463;53.586;9.928;2022-09-20T18:46:49;7.07;;;3.57;;
5612;SDS011;63463;53.586;9.928;2022-09-20T18:49:18;4.87;;;3.20;;
5612;SDS011;63463;53.586;9.928;2022-09-20T18:51:45;12.43;;;4.00;;
5612;SDS011;63463;53.586;9.928;2022-09-20T18:54:12;8.73;;;4.47;;
5612;SDS011;63463;53.586;9.928;2022-09-20T18:56:42;8.37;;;4.13;;
5612;SDS011;63463;53.586;9.928;2022-09-20T19:09:41;5.50;;;3.83;;
5612;SDS011;63463;53.586;9.928;2022-09-20T19:12:05;7.60;;;3.80;;
5612;SDS011;63463;53.586;9.928;2022-09-20T19:17:00;14.57;;;3.93;;
5612;SDS011;63463;53.586;9.928;2022-09-20T19:22:13;4.60;;;3.87;;
5612;SDS011;63463;53.586;9.928;2022-09-20T19:27:25;8.73;;;4.23;;
5612;SDS011;63463;53.586;9.928;2022-09-20T19:29:52;14.30;;;4.50;;
5612;SDS011;63463;53.586;9.928;2022-09-20T19:32:18;6.60;;;4.23;;
5612;SDS011;63463;53.586;9.928;2022-09-20T19:34:52;6.83;;;4.60;;
5612;SDS011;63463;53.586;9.928;2022-09-20T19:37:31;6.10;;;4.57;;
5612;SDS011;63463;53.586;9.928;2022-09-20T19:45:30;7.13;;;4.77;;
5612;SDS011;63463;53.586;9.928;2022-09-20T19:52:51;19.27;;;4.60;;
5612;SDS011;63463;53.586;9.928;2022-09-20T19:55:18;11.03;;;4.97;;
5612;SDS011;63463;53.586;9.928;2022-09-20T19:57:45;6.70;;;4.80;;
5612;SDS011;63463;53.586;9.928;2022-09-20T20:00:12;6.30;;;4.40;;
5612;SDS011;63463;53.586;9.928;2022-09-20T20:02:39;8.40;;;4.30;;
5612;SDS011;63463;53.586;9.928;2022-09-20T20:05:05;10.77;;;4.30;;
5612;SDS011;63463;53.586;9.928;2022-09-20T20:07:37;11.03;;;4.70;;
5612;SDS011;63463;53.586;9.928;2022-09-20T20:10:15;11.80;;;5.03;;
5612;SDS011;63463;53.586;9.928;2022-09-20T20:12:54;9.70;;;5.30;;
5612;SDS011;63463;53.586;9.928;2022-09-20T20:20:56;12.87;;;5.00;;
5612;SDS011;63463;53.586;9.928;2022-09-20T20:25:56;9.87;;;5.30;;
5612;SDS011;63463;53.586;9.928;2022-09-20T20:28:26;10.97;;;4.77;;
5612;SDS011;63463;53.586;9.928;2022-09-20T20:30:52;16.77;;;5.97;;
5612;SDS011;63463;53.586;9.928;2022-09-20T20:33:19;9.60;;;4.87;;
5612;SDS011;63463;53.586;9.928;2022-09-20T20:35:51;7.73;;;4.90;;
5612;SDS011;63463;53.586;9.928;2022-09-20T20:38:18;11.87;;;5.47;;
5612;SDS011;63463;53.586;9.928;2022-09-20T20:40:44;15.87;;;6.03;;
5612;SDS011;63463;53.586;9.928;2022-09-20T20:43:10;7.20;;;5.33;;
5612;SDS011;63463;53.586;9.928;2022-09-20T20:45:36;18.13;;;5.87;;
5612;SDS011;63463;53.586;9.928;2022-09-20T20:48:02;12.93;;;5.70;;
5612;SDS011;63463;53.586;9.928;2022-09-20T20:50:29;12.03;;;5.73;;
5612;SDS011;63463;53.586;9.928;2022-09-20T20:52:55;7.87;;;5.30;;
5612;SDS011;63463;53.586;9.928;2022-09-20T20:55:24;11.70;;;5.23;;
5612;SDS011;63463;53.586;9.928;2022-09-20T20:57:53;11.53;;;5.50;;
5612;SDS011;63463;53.586;9.928;2022-09-20T21:00:22;9.27;;;5.50;;
5612;SDS011;63463;53.586;9.928;2022-09-20T21:02:51;8.67;;;5.13;;
5612;SDS011;63463;53.586;9.928;2022-09-20T21:05:19;11.60;;;5.60;;
5612;SDS011;63463;53.586;9.928;2022-09-20T21:07:49;7.50;;;5.00;;
5612;SDS011;63463;53.586;9.928;2022-09-20T21:10:15;8.73;;;5.70;;
5612;SDS011;63463;53.586;9.928;2022-09-20T21:12:41;10.20;;;5.10;;
5612;SDS011;63463;53.586;9.928;2022-09-20T21:15:07;8.83;;;5.23;;
5612;SDS011;63463;53.586;9.928;2022-09-20T21:17:33;8.87;;;5.33;;
5612;SDS011;63463;53.586;9.928;2022-09-20T21:19:59;9.33;;;5.67;;
5612;SDS011;63463;53.586;9.928;2022-09-20T21:22:25;9.70;;;5.10;;
5612;SDS011;63463;53.586;9.928;2022-09-20T21:24:51;11.70;;;5.60;;
5612;SDS011;63463;53.586;9.928;2022-09-20T21:27:18;10.87;;;5.50;;
5612;SDS011;63463;53.586;9.928;2022-09-20T21:29:44;5.30;;;4.80;;
5612;SDS011;63463;53.586;9.928;2022-09-20T21:32:10;10.17;;;5.20;;
5612;SDS011;63463;53.586;9.928;2022-09-20T21:34:38;9.07;;;5.27;;
5612;SDS011;63463;53.586;9.928;2022-09-20T21:37:04;7.53;;;4.77;;
5612;SDS011;63463;53.586;9.928;2022-09-20T21:39:31;7.93;;;5.50;;
5612;SDS011;63463;53.586;9.928;2022-09-20T21:41:57;8.63;;;5.03;;
5612;SDS011;63463;53.586;9.928;2022-09-20T21:44:23;11.33;;;5.10;;
5612;SDS011;63463;53.586;9.928;2022-09-20T21:46:49;12.17;;;5.70;;